Time;durP1;ratioP1;P1;durP2;ratioP2;P2;SDS_P1;SDS_P2;PMS_P1;PMS_P2;Temp;Humidity;BMP_temperature;BMP_pressure;BME280_temperature;BME280_humidity;BME280_pressure;Samples;Min_cycle;Max_cycle;Signal;HPM_P1;HPM_P2
2023/01/14 00:01:18;;;;;;;18.20;3.35;;;7.50;91.80;;;;;;5053085;28;20404;-74
2023/01/14 00:03:45;;;;;;;18.27;3.65;;;7.60;92.10;;;;;;5052959;28;20132;-73
2023/01/14 00:06:12;;;;;;;17.13;3.78;;;7.60;91.90;;;;;;5053211;28;20187;-74
2023/01/14 00:08:38;;;;;;;20.55;3.72;;;7.60;92.00;;;;;;5052963;28;20570;-73
2023/01/14 00:11:06;;;;;;;19.55;3.75;;;7.60;91.60;;;;;;5052910;28;20044;-75
2023/01/14 00:13:33;;;;;;;17.02;4.13;;;7.60;91.60;;;;;;5052825;28;20091;-75
2023/01/14 00:16:00;;;;;;;19.20;3.95;;;7.50;91.70;;;;;;5052973;28;20454;-74
2023/01/14 00:18:26;;;;;;;14.10;4.15;;;7.50;92.00;;;;;;5052747;28;20130;-75
2023/01/14 00:21:13;;;;;;;13.48;3.58;;;7.60;91.60;;;;;;5053010;28;20124;-74
2023/01/14 00:23:40;;;;;;;15.02;3.90;;;7.70;91.20;;;;;;5052725;28;20481;-73
2023/01/14 00:26:14;;;;;;;20.08;3.97;;;7.70;91.20;;;;;;5052585;28;20040;-74
2023/01/14 00:28:40;;;;;;;13.93;3.45;;;7.70;91.10;;;;;;5052759;28;20090;-74
2023/01/14 00:31:07;;;;;;;16.20;2.97;;;7.70;91.20;;;;;;5052783;28;20056;-73
2023/01/14 00:33:34;;;;;;;22.90;3.80;;;7.70;91.30;;;;;;5036173;28;20397;-73
2023/01/14 00:35:59;;;;;;;18.30;4.57;;;7.70;91.10;;;;;;5052590;28;20041;-73
2023/01/14 00:38:26;;;;;;;28.58;5.72;;;7.70;91.20;;;;;;5052350;28;20072;-73
2023/01/14 00:41:25;;;;;;;17.85;3.53;;;7.60;91.00;;;;;;5035810;28;20132;-73
2023/01/14 00:43:53;;;;;;;22.92;5.47;;;7.60;91.10;;;;;;5021369;28;20392;-74
2023/01/14 00:46:31;;;;;;;15.48;3.75;;;7.70;90.90;;;;;;5035620;28;20044;-75
2023/01/14 00:48:59;;;;;;;13.40;4.03;;;7.70;90.70;;;;;;5052552;28;20052;-75
2023/01/14 00:51:25;;;;;;;22.40;4.40;;;7.70;90.70;;;;;;5035542;28;20480;-76
2023/01/14 00:53:51;;;;;;;23.73;4.38;;;7.60;90.60;;;;;;5052237;28;20159;-75
2023/01/14 00:56:19;;;;;;;17.25;5.05;;;7.70;90.60;;;;;;5051973;28;20315;-73
2023/01/14 00:58:45;;;;;;;18.50;4.25;;;7.60;90.90;;;;;;5052297;28;20045;-72
2023/01/14 01:01:11;;;;;;;18.75;4.30;;;7.70;90.80;;;;;;5051924;28;20040;-73
2023/01/14 01:03:42;;;;;;;21.77;5.35;;;7.70;90.70;;;;;;5051893;28;20060;-74
2023/01/14 01:06:09;;;;;;;18.40;3.65;;;7.70;90.70;;;;;;5051731;28;20501;-74
2023/01/14 01:08:35;;;;;;;28.25;6.18;;;7.70;90.30;;;;;;5051911;28;20482;-73
2023/01/14 01:11:01;;;;;;;19.83;4.18;;;7.70;90.30;;;;;;5035520;28;20044;-74
2023/01/14 01:13:27;;;;;;;19.10;3.53;;;7.70;90.20;;;;;;5051889;28;20045;-73
2023/01/14 01:15:57;;;;;;;19.83;4.03;;;7.70;89.80;;;;;;5035342;28;20076;-75
2023/01/14 01:18:23;;;;;;;23.30;4.25;;;7.70;89.80;;;;;;5052076;28;20151;-75
2023/01/14 01:20:49;;;;;;;20.13;4.18;;;7.70;89.70;;;;;;5035155;28;20493;-75
2023/01/14 01:23:15;;;;;;;28.00;5.07;;;7.70;89.70;;;;;;5035113;28;20073;-74
2023/01/14 01:25:42;;;;;;;14.48;4.03;;;7.70;89.70;;;;;;5051693;28;20506;-74
2023/01/14 01:28:08;;;;;;;21.38;4.13;;;7.70;89.60;;;;;;5051663;28;20041;-75
2023/01/14 01:30:33;;;;;;;18.27;5.15;;;7.60;89.70;;;;;;5051619;28;20131;-73
2023/01/14 01:33:01;;;;;;;13.95;3.95;;;7.60;89.70;;;;;;5051191;28;20051;-74
2023/01/14 01:35:27;;;;;;;19.20;4.15;;;7.60;89.90;;;;;;5051548;28;20045;-76
2023/01/14 01:37:53;;;;;;;17.40;4.38;;;7.60;89.80;;;;;;5051465;28;20037;-74
2023/01/14 01:40:19;;;;;;;28.35;4.78;;;7.60;89.80;;;;;;5051498;28;20048;-75
2023/01/14 01:42:58;;;;;;;16.83;3.88;;;7.60;89.80;;;;;;5018566;28;20039;-73
2023/01/14 01:45:48;;;;;;;21.20;4.57;;;7.70;89.80;;;;;;5034925;28;20045;-72
2023/01/14 01:48:28;;;;;;;18.08;5.30;;;7.70;89.70;;;;;;5051678;28;20393;-74
2023/01/14 01:51:19;;;;;;;25.88;5.13;;;7.60;89.70;;;;;;5051519;28;20045;-75
2023/01/14 01:53:48;;;;;;;21.42;4.13;;;7.60;90.00;;;;;;5051461;28;20041;-72
2023/01/14 01:56:26;;;;;;;16.20;4.28;;;7.60;89.80;;;;;;5034554;28;20051;-76
2023/01/14 01:58:52;;;;;;;26.05;5.20;;;7.60;89.80;;;;;;5051692;28;20045;-76
2023/01/14 02:01:19;;;;;;;18.63;4.80;;;7.60;89.60;;;;;;5035106;28;20048;-76
2023/01/14 02:03:48;;;;;;;18.58;5.03;;;7.60;89.50;;;;;;5034618;28;20053;-72
2023/01/14 02:06:14;;;;;;;21.80;4.05;;;7.50;89.40;;;;;;5051205;28;20041;-73
2023/01/14 02:08:45;;;;;;;18.95;4.30;;;7.60;89.40;;;;;;5034998;28;20051;-73
2023/01/14 02:11:36;;;;;;;27.23;5.13;;;7.50;89.50;;;;;;5051320;28;20057;-74
2023/01/14 02:14:35;;;;;;;29.85;5.68;;;7.50;89.80;;;;;;5051477;28;20080;-75
2023/01/14 02:17:14;;;;;;;23.65;4.85;;;7.40;89.70;;;;;;5051111;28;20048;-74
2023/01/14 02:19:58;;;;;;;22.77;5.65;;;7.30;89.90;;;;;;5037010;28;20041;-73
2023/01/14 02:23:02;;;;;;;19.27;3.80;;;7.40;90.00;;;;;;5055071;28;20033;-76
2023/01/14 02:26:22;;;;;;;27.48;4.57;;;7.40;89.90;;;;;;4978288;28;20050;-73
2023/01/14 02:29:21;;;;;;;17.92;4.53;;;7.40;89.90;;;;;;4904972;29;20087;-76
2023/01/14 02:31:58;;;;;;;21.80;5.53;;;7.30;89.90;;;;;;5054816;28;20045;-74
2023/01/14 02:34:26;;;;;;;15.38;3.97;;;7.30;89.90;;;;;;5055042;28;20137;-74
2023/01/14 02:36:56;;;;;;;20.45;5.50;;;7.30;89.80;;;;;;5054636;28;20037;-75
2023/01/14 02:39:50;;;;;;;20.35;4.03;;;7.30;90.00;;;;;;5054677;28;20044;-77
2023/01/14 02:45:22;;;;;;;17.67;4.32;;;7.10;90.50;;;;;;5054934;28;20105;-73
2023/01/14 02:47:48;;;;;;;21.10;4.63;;;7.10;90.60;;;;;;5054720;28;20041;-74
2023/01/14 02:50:15;;;;;;;27.20;4.40;;;7.10;90.90;;;;;;5054464;28;20041;-73
2023/01/14 02:52:41;;;;;;;21.00;5.10;;;7.10;90.70;;;;;;5054383;28;20045;-75
2023/01/14 02:55:33;;;;;;;18.77;3.72;;;7.10;91.00;;;;;;5054457;28;20048;-75
2023/01/14 02:58:20;;;;;;;23.27;5.35;;;7.10;90.90;;;;;;5037681;28;20041;-73
2023/01/14 03:01:05;;;;;;;23.35;5.68;;;7.00;91.00;;;;;;5054673;28;20480;-74
2023/01/14 03:03:45;;;;;;;24.35;4.35;;;6.90;90.90;;;;;;5053544;28;20064;-75
2023/01/14 03:06:35;;;;;;;24.23;4.32;;;6.90;91.10;;;;;;5054151;28;20098;-76
2023/01/14 03:09:22;;;;;;;26.27;4.78;;;6.80;90.90;;;;;;5054165;28;20033;-73
2023/01/14 03:11:59;;;;;;;20.08;4.47;;;6.70;91.00;;;;;;5054118;28;20041;-73
2023/01/14 03:14:33;;;;;;;18.27;4.03;;;6.70;91.20;;;;;;5054105;28;20098;-75
2023/01/14 03:17:10;;;;;;;16.80;4.18;;;6.60;91.20;;;;;;5053916;28;20045;-74
2023/01/14 03:19:41;;;;;;;20.85;3.83;;;6.50;91.20;;;;;;5053994;28;20040;-73
2023/01/14 03:22:08;;;;;;;20.45;4.70;;;6.50;91.20;;;;;;5054253;28;20033;-73
2023/01/14 03:24:44;;;;;;;17.55;3.47;;;6.40;91.30;;;;;;5053910;28;20048;-73
2023/01/14 03:27:18;;;;;;;23.10;5.00;;;6.30;91.40;;;;;;5053774;28;20056;-74
2023/01/14 03:29:48;;;;;;;20.40;5.55;;;6.30;91.50;;;;;;5053871;28;20049;-74
2023/01/14 03:32:32;;;;;;;24.50;4.72;;;6.20;91.60;;;;;;5053669;28;20140;-75
2023/01/14 03:35:18;;;;;;;23.60;5.17;;;6.20;91.70;;;;;;5054071;28;20048;-75
2023/01/14 03:37:53;;;;;;;20.65;4.05;;;6.10;91.60;;;;;;5053598;28;20102;-74
2023/01/14 03:40:21;;;;;;;27.02;4.47;;;6.10;91.80;;;;;;5053618;28;20041;-72
2023/01/14 03:42:52;;;;;;;20.38;4.28;;;6.00;91.90;;;;;;5036825;28;20041;-73
2023/01/14 03:45:22;;;;;;;23.48;4.47;;;6.00;92.20;;;;;;5053397;28;20090;-73
2023/01/14 03:47:48;;;;;;;21.50;3.78;;;5.90;92.20;;;;;;5053360;28;20143;-74
2023/01/14 03:50:19;;;;;;;22.20;4.25;;;5.80;92.50;;;;;;5053372;28;20095;-72
2023/01/14 03:53:03;;;;;;;22.42;3.75;;;5.80;92.70;;;;;;5053352;28;20485;-75
2023/01/14 03:55:40;;;;;;;23.50;3.83;;;5.80;92.60;;;;;;5053545;28;20441;-72
2023/01/14 03:58:19;;;;;;;15.90;4.10;;;5.70;93.20;;;;;;5053230;28;20040;-73
2023/01/14 04:01:02;;;;;;;19.83;4.10;;;5.70;93.10;;;;;;5053236;28;20047;-72
2023/01/14 04:03:28;;;;;;;15.07;3.58;;;5.70;93.20;;;;;;5053031;28;20076;-74
2023/01/14 04:05:54;;;;;;;22.10;4.10;;;5.60;93.30;;;;;;5053096;28;20048;-75
2023/01/14 04:08:22;;;;;;;23.20;3.80;;;5.60;93.30;;;;;;5052945;28;20045;-75
2023/01/14 04:10:48;;;;;;;29.13;4.60;;;5.60;93.20;;;;;;5053267;28;20398;-76
2023/01/14 04:15:59;;;;;;;17.23;3.55;;;5.60;93.30;;;;;;5052818;28;20076;-73
2023/01/14 04:18:25;;;;;;;20.50;4.53;;;5.60;93.50;;;;;;5036227;28;20072;-75
2023/01/14 04:20:50;;;;;;;20.02;3.63;;;5.60;94.00;;;;;;5052837;28;20041;-72
2023/01/14 04:23:16;;;;;;;24.75;3.92;;;5.60;93.70;;;;;;5052754;28;20037;-73
2023/01/14 04:25:42;;;;;;;20.17;4.30;;;5.60;93.70;;;;;;5052758;28;20037;-74
2023/01/14 04:28:07;;;;;;;17.88;4.00;;;5.60;93.60;;;;;;5052591;28;20045;-75
2023/01/14 04:30:33;;;;;;;28.13;4.05;;;5.60;93.90;;;;;;5052631;28;20041;-74
2023/01/14 04:32:59;;;;;;;25.67;4.45;;;5.60;93.60;;;;;;5052871;28;20044;-74
2023/01/14 04:35:24;;;;;;;20.08;3.95;;;5.60;94.10;;;;;;5052461;28;20489;-75
2023/01/14 04:37:51;;;;;;;29.30;4.85;;;5.70;94.10;;;;;;5052404;28;20037;-75
2023/01/14 04:40:17;;;;;;;23.38;3.47;;;5.70;94.30;;;;;;5052445;28;20045;-74
2023/01/14 04:42:43;;;;;;;17.83;3.65;;;5.70;94.40;;;;;;5052209;28;20037;-73
2023/01/14 04:45:10;;;;;;;23.45;3.97;;;5.70;94.20;;;;;;5052599;28;20473;-73
2023/01/14 04:47:38;;;;;;;22.58;4.55;;;5.80;95.00;;;;;;5052517;28;20420;-72
2023/01/14 04:50:30;;;;;;;25.40;4.13;;;5.90;94.80;;;;;;5052340;28;20044;-75
2023/01/14 04:52:51;;;;;;;20.13;3.97;;;5.90;94.80;;;;;;5052346;28;20063;-75
2023/01/14 04:55:17;;;;;;;22.45;4.60;;;6.00;95.00;;;;;;5035466;28;20127;-75
2023/01/14 04:57:43;;;;;;;21.25;4.53;;;6.00;94.70;;;;;;5052295;28;20129;-74
2023/01/14 05:00:10;;;;;;;20.00;4.63;;;6.10;94.50;;;;;;5035800;28;20041;-75
2023/01/14 05:02:36;;;;;;;26.13;4.45;;;6.10;94.80;;;;;;5051836;28;20137;-76
2023/01/14 05:05:02;;;;;;;20.63;4.55;;;6.10;94.70;;;;;;5052002;28;20120;-75
2023/01/14 05:07:27;;;;;;;18.00;3.65;;;6.10;94.40;;;;;;5051911;28;20044;-73
2023/01/14 05:09:53;;;;;;;28.17;4.72;;;6.10;94.50;;;;;;5051933;28;20040;-75
2023/01/14 05:12:19;;;;;;;24.58;4.43;;;6.20;94.50;;;;;;5052047;28;20084;-75
2023/01/14 05:14:44;;;;;;;22.00;4.53;;;6.20;94.30;;;;;;5051949;28;20493;-75
2023/01/14 05:17:10;;;;;;;24.00;4.28;;;6.30;94.30;;;;;;5051695;28;20095;-73
2023/01/14 05:19:36;;;;;;;21.40;4.65;;;6.30;94.20;;;;;;5051829;28;20037;-74
2023/01/14 05:22:01;;;;;;;16.85;4.40;;;6.30;94.00;;;;;;5051743;28;20041;-72
2023/01/14 05:24:27;;;;;;;22.85;4.65;;;6.30;94.00;;;;;;5051753;28;20041;-74
2023/01/14 05:26:53;;;;;;;23.33;4.07;;;6.30;93.90;;;;;;5051920;28;20044;-74
2023/01/14 05:29:19;;;;;;;20.83;3.53;;;6.30;93.80;;;;;;5051635;28;20126;-73
2023/01/14 05:31:46;;;;;;;26.63;4.63;;;6.20;93.70;;;;;;5051877;28;20045;-73
2023/01/14 05:34:12;;;;;;;19.90;3.70;;;6.20;93.60;;;;;;5051848;28;20433;-73
2023/01/14 05:36:38;;;;;;;17.42;4.60;;;6.20;93.60;;;;;;5051421;28;20136;-74
2023/01/14 05:39:04;;;;;;;20.73;4.85;;;6.10;93.70;;;;;;5051623;28;20128;-73
2023/01/14 05:41:29;;;;;;;20.08;3.78;;;6.00;93.80;;;;;;5051744;28;20041;-72
2023/01/14 05:46:39;;;;;;;20.67;3.38;;;6.00;93.70;;;;;;5051624;28;20094;-75
2023/01/14 05:49:05;;;;;;;16.08;3.45;;;5.90;94.00;;;;;;5051530;28;20041;-74
2023/01/14 05:51:31;;;;;;;21.35;4.38;;;5.90;93.90;;;;;;5051437;28;20071;-74
2023/01/14 05:53:56;;;;;;;20.85;5.25;;;6.00;93.80;;;;;;5036387;28;20052;-75
2023/01/14 05:56:22;;;;;;;19.33;5.03;;;6.00;93.90;;;;;;5038725;28;20409;-73
2023/01/14 05:58:48;;;;;;;20.73;3.85;;;5.90;94.10;;;;;;5055440;28;20120;-75
2023/01/14 06:06:47;;;;;;;;;;;5.90;94.10;;;;;;5035790;28;20103;-73
2023/01/14 06:09:14;;;;;;;20.77;5.35;;;5.90;94.20;;;;;;5035613;28;20007;-73
2023/01/14 06:11:42;;;;;;;21.10;5.00;;;5.90;94.30;;;;;;5035387;28;20125;-73
2023/01/14 06:14:08;;;;;;;17.42;4.30;;;5.90;94.30;;;;;;5035529;28;20045;-72
2023/01/14 06:16:40;;;;;;;26.00;4.22;;;5.90;94.50;;;;;;5035332;28;20045;-73
2023/01/14 06:19:13;;;;;;;21.70;5.50;;;5.90;94.60;;;;;;5035223;28;20038;-75
2023/01/14 06:21:40;;;;;;;20.17;5.03;;;5.90;94.60;;;;;;5035160;28;20091;-72
2023/01/14 06:24:06;;;;;;;16.73;4.63;;;5.90;94.50;;;;;;5035085;28;20045;-73
2023/01/14 06:26:35;;;;;;;24.77;5.15;;;5.90;94.40;;;;;;5035220;28;20136;-74
2023/01/14 06:29:07;;;;;;;22.52;5.22;;;5.90;94.30;;;;;;5035030;28;20046;-73
2023/01/14 06:31:33;;;;;;;20.02;4.05;;;5.90;94.30;;;;;;5034929;28;20077;-75
2023/01/14 06:34:02;;;;;;;21.38;5.05;;;5.90;94.30;;;;;;5034880;28;20071;-73
2023/01/14 06:36:29;;;;;;;24.35;5.90;;;5.90;94.40;;;;;;5034835;28;20438;-74
2023/01/14 06:38:55;;;;;;;27.38;4.97;;;5.90;94.40;;;;;;5018361;28;20038;-72
2023/01/14 06:41:21;;;;;;;23.75;5.25;;;5.80;94.80;;;;;;5034833;28;20052;-74
2023/01/14 06:43:46;;;;;;;31.48;6.90;;;5.80;94.70;;;;;;5047393;28;20056;-74
2023/01/14 06:46:14;;;;;;;27.63;6.38;;;5.80;94.60;;;;;;5054428;28;20076;-72
2023/01/14 06:48:41;;;;;;;22.65;5.28;;;5.80;94.50;;;;;;5054789;28;20049;-74
2023/01/14 06:51:09;;;;;;;23.73;6.80;;;5.80;94.60;;;;;;5037872;28;20124;-74
2023/01/14 06:53:35;;;;;;;26.48;5.63;;;5.80;94.50;;;;;;5044804;28;20631;-74
2023/01/14 06:56:06;;;;;;;30.27;6.88;;;5.80;94.50;;;;;;5051998;28;20128;-73
2023/01/14 06:58:31;;;;;;;27.17;7.05;;;5.90;94.50;;;;;;5054343;28;20091;-74
2023/01/14 07:00:58;;;;;;;27.20;6.68;;;5.90;94.20;;;;;;5054362;28;20037;-73
2023/01/14 07:03:24;;;;;;;33.60;7.45;;;5.90;94.30;;;;;;5044385;28;20085;-74
2023/01/14 07:05:50;;;;;;;29.23;7.90;;;5.90;94.50;;;;;;5038001;28;20049;-72
2023/01/14 07:08:16;;;;;;;29.75;7.70;;;5.90;94.60;;;;;;5033082;28;20457;-76
2023/01/14 07:10:42;;;;;;;26.00;11.48;;;5.90;94.70;;;;;;5033291;28;20056;-73
2023/01/14 07:13:08;;;;;;;24.88;7.05;;;5.90;94.70;;;;;;5033001;28;20045;-74
2023/01/14 07:15:33;;;;;;;28.92;8.63;;;5.90;94.60;;;;;;5033217;28;20038;-73
2023/01/14 07:17:59;;;;;;;34.85;8.88;;;5.90;94.70;;;;;;5033149;28;20033;-75
2023/01/14 07:20:25;;;;;;;32.25;9.00;;;5.90;95.10;;;;;;5032979;28;20048;-74
2023/01/14 07:22:50;;;;;;;35.70;9.23;;;5.90;95.00;;;;;;5033158;28;20042;-75
2023/01/14 07:25:16;;;;;;;42.40;8.43;;;5.90;94.90;;;;;;5032887;28;20490;-73
2023/01/14 07:27:42;;;;;;;25.80;6.97;;;5.90;95.10;;;;;;5032732;28;20049;-76
2023/01/14 07:30:09;;;;;;;28.48;7.03;;;6.00;95.30;;;;;;5032996;28;20088;-73
2023/01/14 07:32:34;;;;;;;34.00;9.32;;;6.00;95.30;;;;;;5032752;28;20041;-73
2023/01/14 07:35:00;;;;;;;32.45;9.00;;;5.90;95.10;;;;;;5033004;28;20052;-73
2023/01/14 07:37:26;;;;;;;21.92;7.80;;;5.90;95.30;;;;;;5032512;28;20072;-72
2023/01/14 07:39:52;;;;;;;25.42;7.97;;;5.90;95.20;;;;;;5032660;28;20038;-74
2023/01/14 07:42:18;;;;;;;32.80;10.20;;;5.90;95.30;;;;;;5032558;28;20139;-72
2023/01/14 07:44:44;;;;;;;35.25;8.63;;;6.00;95.20;;;;;;5032502;28;20042;-72
2023/01/14 07:47:11;;;;;;;27.40;8.93;;;5.90;95.30;;;;;;5032394;28;20076;-72
2023/01/14 07:49:39;;;;;;;38.38;10.15;;;6.10;95.10;;;;;;5032758;28;20207;-74
2023/01/14 07:52:05;;;;;;;32.08;10.35;;;6.00;95.60;;;;;;5032386;28;20045;-73
2023/01/14 07:54:31;;;;;;;25.52;7.35;;;6.00;95.80;;;;;;5032353;28;20045;-73
2023/01/14 07:56:57;;;;;;;34.45;8.77;;;6.00;95.80;;;;;;5015645;28;20060;-72
2023/01/14 07:59:22;;;;;;;28.98;9.00;;;6.00;95.60;;;;;;5032495;28;20084;-74
2023/01/14 08:01:48;;;;;;;35.40;10.93;;;6.10;95.90;;;;;;5032397;28;20046;-73
2023/01/14 08:04:14;;;;;;;27.92;8.75;;;6.00;95.90;;;;;;4989108;28;1262672;-73
2023/01/14 08:06:40;;;;;;;25.73;6.43;;;6.10;95.80;;;;;;5032982;28;20096;-74
2023/01/14 08:09:05;;;;;;;37.63;8.02;;;6.10;95.80;;;;;;5032817;28;20056;-73
2023/01/14 08:11:33;;;;;;;29.70;8.23;;;6.10;96.10;;;;;;5032825;28;20045;-72
2023/01/14 08:13:58;;;;;;;30.92;7.25;;;6.10;96.00;;;;;;5033270;28;20392;-73
2023/01/14 08:16:24;;;;;;;29.83;7.35;;;6.10;95.80;;;;;;5032035;28;20124;-74
2023/01/14 08:18:50;;;;;;;31.75;6.22;;;6.10;95.80;;;;;;5033103;28;20042;-73
2023/01/14 08:21:16;;;;;;;29.10;7.57;;;6.10;95.60;;;;;;5048626;28;20037;-74
2023/01/14 08:23:42;;;;;;;30.20;6.30;;;6.10;95.50;;;;;;5052806;28;20041;-73
2023/01/14 08:26:11;;;;;;;29.00;6.40;;;6.10;95.80;;;;;;5052622;28;20554;-75
2023/01/14 08:28:38;;;;;;;24.92;5.93;;;6.10;95.70;;;;;;5052695;28;20056;-74
2023/01/14 08:31:06;;;;;;;32.35;6.72;;;6.10;95.70;;;;;;5052649;28;20493;-75
2023/01/14 08:33:32;;;;;;;22.63;5.95;;;6.10;95.80;;;;;;5052586;28;20051;-77
2023/01/14 08:36:06;;;;;;;31.08;5.88;;;6.10;95.80;;;;;;5035900;28;20047;-74
2023/01/14 08:38:40;;;;;;;26.02;5.70;;;6.10;95.90;;;;;;5052451;28;20520;-74
2023/01/14 08:41:09;;;;;;;26.50;5.30;;;6.10;96.10;;;;;;5036363;28;20459;-73
2023/01/14 08:43:35;;;;;;;24.08;5.10;;;6.10;96.00;;;;;;5052635;28;20362;-73
2023/01/14 08:46:01;;;;;;;23.92;5.30;;;6.10;96.10;;;;;;5052381;28;20045;-75
2023/01/14 08:48:28;;;;;;;21.58;5.30;;;6.10;96.10;;;;;;5038527;28;20045;-75
2023/01/14 08:50:58;;;;;;;28.70;5.90;;;6.10;96.40;;;;;;5042790;28;20052;-77
2023/01/14 08:53:23;;;;;;;17.90;5.18;;;6.10;96.20;;;;;;5042017;28;20032;-74
2023/01/14 08:55:49;;;;;;;17.77;4.88;;;6.10;96.50;;;;;;5041293;28;20043;-75
2023/01/14 08:58:14;;;;;;;24.77;5.38;;;6.10;96.40;;;;;;5038930;28;20068;-74
2023/01/14 09:00:40;;;;;;;24.45;5.00;;;6.10;96.40;;;;;;5052128;28;20124;-75
2023/01/14 09:03:06;;;;;;;28.88;5.95;;;6.10;96.30;;;;;;5049965;28;20048;-77
2023/01/14 09:05:32;;;;;;;18.92;5.88;;;6.10;96.40;;;;;;5052100;28;20040;-74
2023/01/14 09:19:03;;;;;;;17.25;5.47;;;6.10;96.20;;;;;;5031926;28;20045;-74
2023/01/14 09:21:29;;;;;;;20.33;4.85;;;6.10;96.30;;;;;;5036845;28;20080;-76
2023/01/14 09:23:54;;;;;;;18.00;4.90;;;6.10;96.50;;;;;;5044431;28;20037;-73
2023/01/14 09:26:20;;;;;;;16.52;4.30;;;6.10;96.40;;;;;;5042316;28;20052;-76
2023/01/14 09:28:46;;;;;;;28.67;7.50;;;6.10;96.50;;;;;;5041956;28;20048;-76
2023/01/14 09:31:12;;;;;;;21.17;4.40;;;6.10;96.50;;;;;;5040456;28;20049;-77
2023/01/14 09:33:37;;;;;;;17.42;4.05;;;6.10;96.70;;;;;;5058946;28;20500;-77
2023/01/14 09:36:03;;;;;;;16.63;4.68;;;6.10;96.60;;;;;;5042255;28;20045;-75
2023/01/14 09:38:29;;;;;;;18.90;4.57;;;6.10;96.70;;;;;;5050199;28;20037;-75
2023/01/14 09:40:55;;;;;;;21.58;5.57;;;6.20;96.60;;;;;;5051549;28;20048;-77
2023/01/14 09:43:23;;;;;;;17.05;4.95;;;6.20;96.70;;;;;;5051784;28;20041;-77
2023/01/14 09:46:00;;;;;;;18.15;5.22;;;6.20;96.30;;;;;;5051582;28;20041;-77
2023/01/14 09:48:30;;;;;;;17.95;5.32;;;6.20;96.50;;;;;;5068195;28;20041;-77
2023/01/14 09:51:02;;;;;;;24.85;6.32;;;6.20;96.60;;;;;;5051574;28;20195;-78
2023/01/14 09:53:58;;;;;;;13.02;4.47;;;6.20;96.60;;;;;;5051583;28;20083;-77
2023/01/14 09:56:57;;;;;;;12.45;4.18;;;6.30;96.80;;;;;;5050646;28;20048;-78
2023/01/14 09:59:37;;;;;;;12.57;4.63;;;6.30;96.70;;;;;;5048093;28;20127;-77
2023/01/14 10:02:22;;;;;;;10.10;4.43;;;6.30;96.70;;;;;;5051388;28;20412;-75
2023/01/14 10:05:18;;;;;;;14.10;5.72;;;6.30;97.00;;;;;;5051405;28;20045;-77
2023/01/14 10:07:44;;;;;;;17.73;7.57;;;6.30;97.00;;;;;;5068032;28;20052;-76
2023/01/14 10:10:25;;;;;;;16.73;8.95;;;6.30;96.90;;;;;;5051661;28;20374;-77
2023/01/14 10:12:54;;;;;;;58.30;30.95;;;6.40;97.00;;;;;;5068231;28;20569;-77
2023/01/14 10:15:41;;;;;;;58.42;27.52;;;6.40;97.30;;;;;;5051757;28;20076;-76
2023/01/14 10:18:49;;;;;;;37.80;17.55;;;6.40;96.80;;;;;;5051846;28;20075;-78
2023/01/14 10:21:26;;;;;;;36.33;17.05;;;6.50;96.90;;;;;;5047411;28;20073;-76
2023/01/14 10:23:52;;;;;;;45.95;19.70;;;6.50;97.30;;;;;;5046718;28;20145;-76
2023/01/14 10:26:20;;;;;;;38.13;19.67;;;6.50;97.40;;;;;;5068324;28;20037;-75
2023/01/14 10:28:49;;;;;;;83.25;40.72;;;6.50;97.10;;;;;;5051963;28;20409;-78
2023/01/14 10:31:25;;;;;;;49.72;21.45;;;6.60;97.00;;;;;;5051416;28;20044;-75
2023/01/14 10:33:52;;;;;;;22.48;11.95;;;6.60;97.10;;;;;;5051580;28;20105;-77
2023/01/14 10:36:30;;;;;;;29.90;14.63;;;6.70;97.00;;;;;;5051086;28;20045;-77
2023/01/14 10:38:56;;;;;;;47.35;21.13;;;6.70;97.00;;;;;;5051465;28;20384;-77
2023/01/14 10:44:30;;;;;;;17.55;7.82;;;6.80;97.20;;;;;;4997791;28;20046;-76
2023/01/14 10:46:58;;;;;;;36.95;20.63;;;6.80;97.10;;;;;;5028085;28;20127;-76
2023/01/14 10:49:39;;;;;;;31.05;16.83;;;6.90;97.50;;;;;;5054569;28;20041;-75
2023/01/14 10:52:21;;;;;;;38.78;24.85;;;6.90;97.40;;;;;;5018248;28;20386;-75
2023/01/14 10:55:00;;;;;;;20.55;12.30;;;6.90;97.30;;;;;;5034593;28;20049;-78
2023/01/14 10:57:29;;;;;;;12.65;10.88;;;6.90;97.30;;;;;;5017953;28;20048;-77
2023/01/14 10:59:56;;;;;;;9.15;6.38;;;7.00;97.30;;;;;;5034575;28;20041;-76
2023/01/14 11:02:38;;;;;;;8.85;4.68;;;7.00;97.40;;;;;;5034473;28;20452;-76
2023/01/14 11:05:07;;;;;;;20.98;15.02;;;7.00;97.30;;;;;;5034651;28;20120;-78
2023/01/14 11:07:33;;;;;;;27.30;18.50;;;7.00;97.20;;;;;;5034288;28;20042;-75
2023/01/14 11:10:02;;;;;;;13.77;7.80;;;7.00;97.20;;;;;;5034254;28;20056;-77
2023/01/14 11:12:29;;;;;;;11.77;8.40;;;7.00;97.30;;;;;;5041004;28;20045;-76
2023/01/14 11:14:55;;;;;;;12.57;7.78;;;7.00;97.50;;;;;;5043027;28;20102;-75
2023/01/14 11:17:22;;;;;;;9.55;5.80;;;7.00;97.60;;;;;;5042830;28;20124;-77
2023/01/14 11:19:48;;;;;;;7.38;5.38;;;7.00;97.60;;;;;;5060139;28;20048;-77
2023/01/14 11:22:14;;;;;;;8.43;5.00;;;7.10;97.70;;;;;;5058273;28;20046;-76
2023/01/14 11:24:44;;;;;;;8.57;5.47;;;7.10;97.50;;;;;;5042544;28;20034;-75
2023/01/14 11:27:17;;;;;;;5.13;3.20;;;7.10;97.40;;;;;;5059491;28;20128;-75
2023/01/14 11:29:57;;;;;;;10.45;7.28;;;7.10;97.50;;;;;;5034126;28;20379;-76
2023/01/14 11:32:26;;;;;;;8.38;5.45;;;7.20;97.40;;;;;;5033824;28;20092;-76
2023/01/14 11:34:58;;;;;;;5.70;4.22;;;7.20;97.50;;;;;;5033817;28;20037;-77
2023/01/14 11:37:53;;;;;;;8.25;5.78;;;7.20;97.50;;;;;;5033624;28;20038;-78
2023/01/14 11:43:17;;;;;;;13.82;7.57;;;7.20;97.40;;;;;;5050309;28;20099;-78
2023/01/14 11:45:43;;;;;;;15.45;7.88;;;7.30;97.50;;;;;;5033638;28;20045;-77
2023/01/14 11:48:27;;;;;;;7.50;4.40;;;7.20;97.40;;;;;;5033646;28;20131;-78
2023/01/14 11:51:02;;;;;;;10.23;5.23;;;7.30;97.50;;;;;;5032793;28;20038;-78
2023/01/14 11:53:48;;;;;;;6.53;4.32;;;7.30;97.60;;;;;;5033636;28;20486;-76
2023/01/14 11:56:20;;;;;;;7.30;3.53;;;7.30;97.70;;;;;;5033224;28;20056;-79
2023/01/14 11:58:46;;;;;;;8.23;4.53;;;7.30;97.60;;;;;;5034454;28;20107;-77
2023/01/14 12:01:22;;;;;;;5.45;3.17;;;7.40;97.40;;;;;;5043374;28;20477;-75
2023/01/14 12:04:09;;;;;;;9.75;5.15;;;7.50;97.50;;;;;;5042547;28;20088;-77
2023/01/14 12:06:51;;;;;;;8.43;3.95;;;7.50;97.80;;;;;;5035661;28;20045;-76
2023/01/14 12:09:38;;;;;;;9.45;4.30;;;7.50;97.80;;;;;;5033250;28;20048;-78
2023/01/14 12:18:22;;;;;;;5.45;2.85;;;7.70;97.80;;;;;;5049603;28;20042;-77
2023/01/14 12:20:49;;;;;;;9.25;4.00;;;7.70;97.70;;;;;;5049522;28;20046;-76
2023/01/14 12:23:20;;;;;;;9.35;4.00;;;7.80;97.90;;;;;;5032953;28;20045;-79
2023/01/14 12:25:50;;;;;;;7.10;4.13;;;7.80;98.10;;;;;;5033206;28;20116;-79
2023/01/14 12:28:38;;;;;;;6.32;2.83;;;7.80;97.70;;;;;;5032631;28;20041;-76
2023/01/14 12:31:27;;;;;;;8.75;3.40;;;7.90;98.00;;;;;;5049745;28;20033;-75
2023/01/14 12:34:26;;;;;;;6.65;4.43;;;7.90;98.10;;;;;;5049408;28;20048;-79
2023/01/14 12:37:18;;;;;;;5.75;2.53;;;8.00;98.20;;;;;;5032927;28;20081;-77
2023/01/14 12:45:57;;;;;;;6.38;3.70;;;8.10;98.20;;;;;;5035167;28;20045;-78
2023/01/14 12:48:25;;;;;;;4.20;2.60;;;8.10;98.40;;;;;;5034982;28;20045;-78
2023/01/14 12:51:06;;;;;;;9.98;5.35;;;8.30;98.60;;;;;;5032423;28;20485;-78
2023/01/14 12:53:53;;;;;;;6.38;3.35;;;8.30;98.40;;;;;;5049398;28;20045;-77
2023/01/14 12:56:26;;;;;;;4.97;2.35;;;8.30;98.30;;;;;;5049015;28;20045;-78
2023/01/14 12:59:15;;;;;;;2.83;1.88;;;8.40;98.60;;;;;;5049723;28;20371;-76
2023/01/14 13:01:50;;;;;;;5.82;2.83;;;8.50;98.40;;;;;;5032044;28;20092;-76
2023/01/14 13:04:20;;;;;;;4.20;2.03;;;8.50;98.60;;;;;;5048592;28;20049;-75
2023/01/14 13:07:02;;;;;;;3.10;1.60;;;8.60;98.50;;;;;;5048950;28;20048;-78
2023/01/14 13:09:50;;;;;;;4.43;2.15;;;8.60;98.30;;;;;;5049000;28;20482;-80
2023/01/14 13:12:32;;;;;;;3.67;1.95;;;8.60;98.50;;;;;;5048768;28;20077;-82
2023/01/14 13:15:04;;;;;;;7.20;2.72;;;8.80;98.60;;;;;;5048775;28;20493;-80
2023/01/14 13:17:33;;;;;;;2.78;1.70;;;8.80;98.60;;;;;;5048598;28;20045;-84
2023/01/14 13:20:28;;;;;;;2.38;1.80;;;8.90;98.60;;;;;;5016077;28;20037;-88
2023/01/14 13:22:55;;;;;;;4.55;2.22;;;8.90;98.60;;;;;;5006612;28;20049;-81
2023/01/14 13:25:38;;;;;;;4.10;2.28;;;8.90;98.70;;;;;;5048692;28;20037;-79
2023/01/14 13:28:10;;;;;;;4.32;2.10;;;8.90;98.50;;;;;;5032082;28;20045;-86
2023/01/14 13:30:51;;;;;;;8.30;2.67;;;8.90;98.80;;;;;;5015893;28;20041;-85
2023/01/14 13:33:22;;;;;;;4.43;2.75;;;9.00;98.70;;;;;;5015657;28;20138;-82
2023/01/14 13:36:06;;;;;;;5.95;3.20;;;9.00;98.60;;;;;;5031611;28;20512;-79
2023/01/14 13:38:33;;;;;;;7.25;3.17;;;9.00;98.80;;;;;;5015279;28;20049;-81
2023/01/14 13:41:08;;;;;;;4.80;1.90;;;9.00;98.90;;;;;;5048464;28;20060;-80
2023/01/14 13:43:55;;;;;;;4.07;2.40;;;9.00;98.70;;;;;;5048329;28;20129;-79
2023/01/14 13:46:28;;;;;;;4.88;2.88;;;9.00;98.90;;;;;;5045198;28;20037;-80
2023/01/14 13:48:58;;;;;;;3.55;2.35;;;9.00;98.80;;;;;;5048512;28;20049;-81
2023/01/14 13:51:44;;;;;;;2.60;1.90;;;9.00;99.00;;;;;;5051480;28;20076;-82
2023/01/14 13:54:10;;;;;;;2.70;1.92;;;9.10;98.70;;;;;;5068419;28;20056;-79